sensor_id;sensor_type;location;lat;lon;timestamp;P1;durP1;ratioP1;P2;durP2;ratioP2
84711;SDS011;74937;44.534;18.684;2024-01-30T00:01:53;229.45;;;92.35;;
84711;SDS011;74937;44.534;18.684;2024-01-30T00:04:19;222.88;;;90.75;;
84711;SDS011;74937;44.534;18.684;2024-01-30T00:06:45;211.65;;;89.40;;
84711;SDS011;74937;44.534;18.684;2024-01-30T00:09:11;217.45;;;88.07;;
84711;SDS011;74937;44.534;18.684;2024-01-30T00:11:39;205.73;;;77.88;;
84711;SDS011;74937;44.534;18.684;2024-01-30T00:14:05;199.82;;;83.65;;
84711;SDS011;74937;44.534;18.684;2024-01-30T00:16:31;199.63;;;84.32;;
84711;SDS011;74937;44.534;18.684;2024-01-30T00:18:57;193.05;;;81.05;;
84711;SDS011;74937;44.534;18.684;2024-01-30T00:21:23;199.07;;;79.75;;
84711;SDS011;74937;44.534;18.684;2024-01-30T00:23:48;192.23;;;77.10;;
84711;SDS011;74937;44.534;18.684;2024-01-30T00:26:14;179.82;;;70.90;;
84711;SDS011;74937;44.534;18.684;2024-01-30T00:28:40;209.85;;;81.28;;
84711;SDS011;74937;44.534;18.684;2024-01-30T00:31:06;216.40;;;84.40;;
84711;SDS011;74937;44.534;18.684;2024-01-30T00:33:32;206.93;;;82.90;;
84711;SDS011;74937;44.534;18.684;2024-01-30T00:35:58;210.98;;;85.78;;
84711;SDS011;74937;44.534;18.684;2024-01-30T00:38:24;193.77;;;79.88;;
84711;SDS011;74937;44.534;18.684;2024-01-30T00:40:49;204.73;;;81.55;;
84711;SDS011;74937;44.534;18.684;2024-01-30T00:43:15;202.75;;;83.38;;
84711;SDS011;74937;44.534;18.684;2024-01-30T00:45:43;178.25;;;70.90;;
84711;SDS011;74937;44.534;18.684;2024-01-30T00:48:09;172.13;;;70.05;;
84711;SDS011;74937;44.534;18.684;2024-01-30T00:50:35;164.38;;;67.20;;
84711;SDS011;74937;44.534;18.684;2024-01-30T00:53:00;167.05;;;68.43;;
84711;SDS011;74937;44.534;18.684;2024-01-30T00:55:26;169.80;;;71.28;;
84711;SDS011;74937;44.534;18.684;2024-01-30T00:57:52;207.18;;;85.95;;
84711;SDS011;74937;44.534;18.684;2024-01-30T01:00:17;214.75;;;86.25;;
84711;SDS011;74937;44.534;18.684;2024-01-30T01:02:43;206.85;;;84.20;;
84711;SDS011;74937;44.534;18.684;2024-01-30T01:05:10;175.50;;;74.15;;
84711;SDS011;74937;44.534;18.684;2024-01-30T01:07:35;214.38;;;86.10;;
84711;SDS011;74937;44.534;18.684;2024-01-30T01:10:01;211.50;;;90.53;;
84711;SDS011;74937;44.534;18.684;2024-01-30T01:12:27;189.68;;;82.35;;
84711;SDS011;74937;44.534;18.684;2024-01-30T01:14:53;190.80;;;78.88;;
84711;SDS011;74937;44.534;18.684;2024-01-30T01:17:19;185.77;;;76.47;;
84711;SDS011;74937;44.534;18.684;2024-01-30T01:19:45;146.32;;;63.85;;
84711;SDS011;74937;44.534;18.684;2024-01-30T01:22:11;162.10;;;68.88;;
84711;SDS011;74937;44.534;18.684;2024-01-30T01:24:37;160.20;;;67.20;;
84711;SDS011;74937;44.534;18.684;2024-01-30T01:27:02;158.70;;;68.78;;
84711;SDS011;74937;44.534;18.684;2024-01-30T01:29:28;157.40;;;63.13;;
84711;SDS011;74937;44.534;18.684;2024-01-30T01:31:54;147.02;;;58.60;;
84711;SDS011;74937;44.534;18.684;2024-01-30T01:34:21;147.20;;;60.55;;
84711;SDS011;74937;44.534;18.684;2024-01-30T01:36:47;129.25;;;56.35;;
84711;SDS011;74937;44.534;18.684;2024-01-30T01:39:12;108.45;;;50.00;;
84711;SDS011;74937;44.534;18.684;2024-01-30T01:41:38;121.57;;;51.72;;
84711;SDS011;74937;44.534;18.684;2024-01-30T01:44:04;128.18;;;54.45;;
84711;SDS011;74937;44.534;18.684;2024-01-30T01:46:31;135.38;;;56.28;;
84711;SDS011;74937;44.534;18.684;2024-01-30T01:48:58;136.48;;;59.67;;
84711;SDS011;74937;44.534;18.684;2024-01-30T01:51:27;124.32;;;55.20;;
84711;SDS011;74937;44.534;18.684;2024-01-30T01:53:55;149.20;;;60.10;;
84711;SDS011;74937;44.534;18.684;2024-01-30T01:56:25;137.95;;;61.15;;
84711;SDS011;74937;44.534;18.684;2024-01-30T01:58:52;146.35;;;60.83;;
84711;SDS011;74937;44.534;18.684;2024-01-30T02:01:20;133.07;;;60.63;;
84711;SDS011;74937;44.534;18.684;2024-01-30T02:03:46;145.75;;;58.97;;
84711;SDS011;74937;44.534;18.684;2024-01-30T02:06:15;131.57;;;55.50;;
84711;SDS011;74937;44.534;18.684;2024-01-30T02:08:41;141.93;;;56.53;;
84711;SDS011;74937;44.534;18.684;2024-01-30T02:11:07;133.55;;;54.95;;
84711;SDS011;74937;44.534;18.684;2024-01-30T02:13:35;132.63;;;55.00;;
84711;SDS011;74937;44.534;18.684;2024-01-30T02:16:01;119.13;;;51.63;;
84711;SDS011;74937;44.534;18.684;2024-01-30T02:18:27;122.85;;;51.58;;
84711;SDS011;74937;44.534;18.684;2024-01-30T02:20:53;109.10;;;47.10;;
84711;SDS011;74937;44.534;18.684;2024-01-30T02:23:22;86.68;;;39.55;;
84711;SDS011;74937;44.534;18.684;2024-01-30T02:25:50;87.43;;;37.97;;
84711;SDS011;74937;44.534;18.684;2024-01-30T02:28:18;92.82;;;40.90;;
84711;SDS011;74937;44.534;18.684;2024-01-30T02:33:11;89.65;;;39.10;;
84711;SDS011;74937;44.534;18.684;2024-01-30T02:35:37;98.80;;;42.85;;
84711;SDS011;74937;44.534;18.684;2024-01-30T02:38:03;113.45;;;48.47;;
84711;SDS011;74937;44.534;18.684;2024-01-30T02:40:29;87.15;;;38.05;;
84711;SDS011;74937;44.534;18.684;2024-01-30T02:42:55;93.68;;;42.50;;
84711;SDS011;74937;44.534;18.684;2024-01-30T02:45:21;88.82;;;41.25;;
84711;SDS011;74937;44.534;18.684;2024-01-30T02:47:47;96.45;;;43.67;;
84711;SDS011;74937;44.534;18.684;2024-01-30T02:50:12;104.35;;;46.58;;
84711;SDS011;74937;44.534;18.684;2024-01-30T02:52:40;110.22;;;44.55;;
84711;SDS011;74937;44.534;18.684;2024-01-30T02:55:06;114.75;;;48.67;;
84711;SDS011;74937;44.534;18.684;2024-01-30T02:57:32;109.75;;;49.22;;
84711;SDS011;74937;44.534;18.684;2024-01-30T02:59:58;123.20;;;50.83;;
84711;SDS011;74937;44.534;18.684;2024-01-30T03:02:23;93.28;;;41.28;;
84711;SDS011;74937;44.534;18.684;2024-01-30T03:04:49;98.30;;;41.63;;
84711;SDS011;74937;44.534;18.684;2024-01-30T03:07:15;95.00;;;42.00;;
84711;SDS011;74937;44.534;18.684;2024-01-30T03:09:43;116.28;;;46.35;;
84711;SDS011;74937;44.534;18.684;2024-01-30T03:12:09;97.93;;;42.13;;
84711;SDS011;74937;44.534;18.684;2024-01-30T03:14:35;96.75;;;41.22;;
84711;SDS011;74937;44.534;18.684;2024-01-30T03:17:01;98.82;;;43.35;;
84711;SDS011;74937;44.534;18.684;2024-01-30T03:19:26;99.70;;;43.58;;
84711;SDS011;74937;44.534;18.684;2024-01-30T03:21:52;94.93;;;40.83;;
84711;SDS011;74937;44.534;18.684;2024-01-30T03:24:18;97.70;;;40.17;;
84711;SDS011;74937;44.534;18.684;2024-01-30T03:26:44;96.32;;;40.42;;
84711;SDS011;74937;44.534;18.684;2024-01-30T03:29:09;86.68;;;36.83;;
84711;SDS011;74937;44.534;18.684;2024-01-30T03:31:35;86.88;;;36.72;;
84711;SDS011;74937;44.534;18.684;2024-01-30T03:34:01;80.47;;;36.67;;
84711;SDS011;74937;44.534;18.684;2024-01-30T03:36:27;86.72;;;37.97;;
84711;SDS011;74937;44.534;18.684;2024-01-30T03:38:53;81.82;;;37.92;;
84711;SDS011;74937;44.534;18.684;2024-01-30T03:41:19;81.25;;;37.05;;
84711;SDS011;74937;44.534;18.684;2024-01-30T03:43:46;80.07;;;34.35;;
84711;SDS011;74937;44.534;18.684;2024-01-30T03:46:12;72.20;;;34.75;;
84711;SDS011;74937;44.534;18.684;2024-01-30T03:48:38;84.50;;;34.78;;
84711;SDS011;74937;44.534;18.684;2024-01-30T03:51:04;79.80;;;34.35;;
84711;SDS011;74937;44.534;18.684;2024-01-30T03:53:30;80.38;;;35.92;;
84711;SDS011;74937;44.534;18.684;2024-01-30T03:55:56;74.97;;;31.88;;
84711;SDS011;74937;44.534;18.684;2024-01-30T03:58:22;75.35;;;31.42;;
84711;SDS011;74937;44.534;18.684;2024-01-30T04:00:48;62.53;;;25.23;;
84711;SDS011;74937;44.534;18.684;2024-01-30T04:03:17;66.97;;;27.00;;
84711;SDS011;74937;44.534;18.684;2024-01-30T04:05:42;61.38;;;26.52;;
84711;SDS011;74937;44.534;18.684;2024-01-30T04:08:08;55.45;;;24.80;;
84711;SDS011;74937;44.534;18.684;2024-01-30T04:10:34;56.95;;;27.52;;
84711;SDS011;74937;44.534;18.684;2024-01-30T04:13:00;58.25;;;28.15;;
84711;SDS011;74937;44.534;18.684;2024-01-30T04:15:26;61.70;;;30.33;;
84711;SDS011;74937;44.534;18.684;2024-01-30T04:17:53;70.55;;;32.08;;
84711;SDS011;74937;44.534;18.684;2024-01-30T04:20:18;65.65;;;29.92;;
84711;SDS011;74937;44.534;18.684;2024-01-30T04:22:44;54.58;;;28.25;;
84711;SDS011;74937;44.534;18.684;2024-01-30T04:25:11;56.72;;;26.60;;
84711;SDS011;74937;44.534;18.684;2024-01-30T04:27:38;64.10;;;28.42;;
84711;SDS011;74937;44.534;18.684;2024-01-30T04:30:04;51.72;;;24.67;;
84711;SDS011;74937;44.534;18.684;2024-01-30T04:32:30;51.70;;;25.48;;
84711;SDS011;74937;44.534;18.684;2024-01-30T04:34:57;55.70;;;26.77;;
84711;SDS011;74937;44.534;18.684;2024-01-30T04:37:23;48.58;;;24.42;;
84711;SDS011;74937;44.534;18.684;2024-01-30T04:39:50;56.45;;;24.20;;
84711;SDS011;74937;44.534;18.684;2024-01-30T04:42:16;55.40;;;25.85;;
84711;SDS011;74937;44.534;18.684;2024-01-30T04:44:42;62.33;;;25.42;;
84711;SDS011;74937;44.534;18.684;2024-01-30T04:47:08;53.85;;;26.88;;
84711;SDS011;74937;44.534;18.684;2024-01-30T04:49:36;64.97;;;29.63;;
84711;SDS011;74937;44.534;18.684;2024-01-30T04:52:02;82.32;;;36.70;;
84711;SDS011;74937;44.534;18.684;2024-01-30T04:54:27;73.05;;;33.25;;
84711;SDS011;74937;44.534;18.684;2024-01-30T04:56:53;76.20;;;36.03;;
84711;SDS011;74937;44.534;18.684;2024-01-30T04:59:19;71.18;;;31.90;;
84711;SDS011;74937;44.534;18.684;2024-01-30T05:01:44;70.78;;;31.63;;
84711;SDS011;74937;44.534;18.684;2024-01-30T05:04:10;75.45;;;33.78;;
84711;SDS011;74937;44.534;18.684;2024-01-30T05:06:36;78.82;;;34.72;;
84711;SDS011;74937;44.534;18.684;2024-01-30T05:09:02;77.45;;;32.88;;
84711;SDS011;74937;44.534;18.684;2024-01-30T05:11:30;87.82;;;39.83;;
84711;SDS011;74937;44.534;18.684;2024-01-30T05:13:56;85.78;;;37.63;;
84711;SDS011;74937;44.534;18.684;2024-01-30T05:16:21;85.53;;;38.03;;
84711;SDS011;74937;44.534;18.684;2024-01-30T05:18:47;90.18;;;41.65;;
84711;SDS011;74937;44.534;18.684;2024-01-30T05:21:13;94.20;;;39.47;;
84711;SDS011;74937;44.534;18.684;2024-01-30T05:23:39;86.68;;;39.38;;
84711;SDS011;74937;44.534;18.684;2024-01-30T05:26:07;84.88;;;37.17;;
84711;SDS011;74937;44.534;18.684;2024-01-30T05:28:33;92.32;;;41.17;;
84711;SDS011;74937;44.534;18.684;2024-01-30T05:30:59;70.95;;;32.80;;
84711;SDS011;74937;44.534;18.684;2024-01-30T05:33:25;62.03;;;27.70;;
84711;SDS011;74937;44.534;18.684;2024-01-30T05:35:50;67.45;;;30.08;;
84711;SDS011;74937;44.534;18.684;2024-01-30T05:38:19;65.93;;;28.77;;
84711;SDS011;74937;44.534;18.684;2024-01-30T05:40:45;75.65;;;31.70;;
84711;SDS011;74937;44.534;18.684;2024-01-30T05:43:11;81.60;;;34.65;;
84711;SDS011;74937;44.534;18.684;2024-01-30T05:45:37;91.40;;;39.58;;
84711;SDS011;74937;44.534;18.684;2024-01-30T05:48:03;90.32;;;42.58;;
84711;SDS011;74937;44.534;18.684;2024-01-30T05:50:29;92.70;;;42.20;;
84711;SDS011;74937;44.534;18.684;2024-01-30T05:52:55;97.18;;;41.70;;
84711;SDS011;74937;44.534;18.684;2024-01-30T05:55:21;94.80;;;42.88;;
84711;SDS011;74937;44.534;18.684;2024-01-30T05:57:46;109.20;;;46.35;;
84711;SDS011;74937;44.534;18.684;2024-01-30T06:00:12;102.80;;;45.28;;
84711;SDS011;74937;44.534;18.684;2024-01-30T06:02:38;106.28;;;48.72;;
84711;SDS011;74937;44.534;18.684;2024-01-30T06:05:04;113.30;;;49.47;;
84711;SDS011;74937;44.534;18.684;2024-01-30T06:07:31;115.70;;;52.45;;
84711;SDS011;74937;44.534;18.684;2024-01-30T06:09:56;112.05;;;47.60;;
84711;SDS011;74937;44.534;18.684;2024-01-30T06:12:22;115.10;;;49.38;;
84711;SDS011;74937;44.534;18.684;2024-01-30T06:14:48;105.78;;;47.22;;
84711;SDS011;74937;44.534;18.684;2024-01-30T06:17:13;107.70;;;45.97;;
84711;SDS011;74937;44.534;18.684;2024-01-30T06:19:39;122.90;;;49.40;;
84711;SDS011;74937;44.534;18.684;2024-01-30T06:22:05;127.10;;;51.45;;
84711;SDS011;74937;44.534;18.684;2024-01-30T06:24:30;125.20;;;52.08;;
84711;SDS011;74937;44.534;18.684;2024-01-30T06:26:56;129.48;;;54.20;;
84711;SDS011;74937;44.534;18.684;2024-01-30T06:29:22;111.90;;;50.42;;
84711;SDS011;74937;44.534;18.684;2024-01-30T06:31:49;114.57;;;49.00;;
84711;SDS011;74937;44.534;18.684;2024-01-30T06:34:15;134.77;;;54.67;;
84711;SDS011;74937;44.534;18.684;2024-01-30T06:36:41;122.15;;;49.60;;
84711;SDS011;74937;44.534;18.684;2024-01-30T06:39:07;141.32;;;57.53;;
84711;SDS011;74937;44.534;18.684;2024-01-30T06:41:33;114.20;;;52.17;;
84711;SDS011;74937;44.534;18.684;2024-01-30T06:44:01;149.65;;;64.45;;
84711;SDS011;74937;44.534;18.684;2024-01-30T06:46:29;126.32;;;55.88;;
84711;SDS011;74937;44.534;18.684;2024-01-30T06:48:55;111.68;;;46.90;;
84711;SDS011;74937;44.534;18.684;2024-01-30T06:51:20;100.93;;;44.85;;
84711;SDS011;74937;44.534;18.684;2024-01-30T06:53:46;114.03;;;45.85;;
84711;SDS011;74937;44.534;18.684;2024-01-30T06:56:11;100.90;;;42.80;;
84711;SDS011;74937;44.534;18.684;2024-01-30T06:58:37;104.05;;;41.90;;
84711;SDS011;74937;44.534;18.684;2024-01-30T07:01:04;86.88;;;38.88;;
84711;SDS011;74937;44.534;18.684;2024-01-30T07:03:29;84.43;;;37.38;;
84711;SDS011;74937;44.534;18.684;2024-01-30T07:05:55;93.82;;;42.85;;
84711;SDS011;74937;44.534;18.684;2024-01-30T07:08:21;105.88;;;45.47;;
84711;SDS011;74937;44.534;18.684;2024-01-30T07:10:47;106.43;;;47.75;;
84711;SDS011;74937;44.534;18.684;2024-01-30T07:13:13;119.15;;;53.85;;
84711;SDS011;74937;44.534;18.684;2024-01-30T07:15:41;145.43;;;61.65;;
84711;SDS011;74937;44.534;18.684;2024-01-30T07:18:08;143.32;;;62.45;;
84711;SDS011;74937;44.534;18.684;2024-01-30T07:20:35;156.38;;;69.72;;
84711;SDS011;74937;44.534;18.684;2024-01-30T07:23:00;161.77;;;73.55;;
84711;SDS011;74937;44.534;18.684;2024-01-30T07:25:27;151.23;;;66.93;;
84711;SDS011;74937;44.534;18.684;2024-01-30T07:27:55;152.48;;;68.97;;
84711;SDS011;74937;44.534;18.684;2024-01-30T07:30:21;142.60;;;66.60;;
84711;SDS011;74937;44.534;18.684;2024-01-30T07:32:48;143.18;;;65.40;;
84711;SDS011;74937;44.534;18.684;2024-01-30T07:35:14;145.07;;;70.70;;
84711;SDS011;74937;44.534;18.684;2024-01-30T07:37:40;137.40;;;64.22;;
84711;SDS011;74937;44.534;18.684;2024-01-30T07:40:06;113.25;;;54.53;;
84711;SDS011;74937;44.534;18.684;2024-01-30T07:42:33;117.15;;;54.42;;
84711;SDS011;74937;44.534;18.684;2024-01-30T07:44:59;115.05;;;54.90;;
84711;SDS011;74937;44.534;18.684;2024-01-30T07:49:51;147.23;;;65.70;;
84711;SDS011;74937;44.534;18.684;2024-01-30T07:52:17;144.13;;;66.57;;
84711;SDS011;74937;44.534;18.684;2024-01-30T07:54:42;166.00;;;71.90;;
84711;SDS011;74937;44.534;18.684;2024-01-30T07:57:08;172.25;;;77.28;;
84711;SDS011;74937;44.534;18.684;2024-01-30T07:59:34;201.60;;;92.18;;
84711;SDS011;74937;44.534;18.684;2024-01-30T08:02:01;212.43;;;100.22;;
84711;SDS011;74937;44.534;18.684;2024-01-30T08:04:27;219.45;;;100.75;;
84711;SDS011;74937;44.534;18.684;2024-01-30T08:06:52;215.18;;;98.78;;
84711;SDS011;74937;44.534;18.684;2024-01-30T08:09:18;240.25;;;109.57;;
84711;SDS011;74937;44.534;18.684;2024-01-30T08:11:44;191.68;;;86.72;;
84711;SDS011;74937;44.534;18.684;2024-01-30T08:14:09;193.05;;;92.55;;
84711;SDS011;74937;44.534;18.684;2024-01-30T08:16:35;180.43;;;83.53;;
84711;SDS011;74937;44.534;18.684;2024-01-30T08:19:01;188.30;;;88.38;;
84711;SDS011;74937;44.534;18.684;2024-01-30T08:21:26;172.40;;;78.55;;
84711;SDS011;74937;44.534;18.684;2024-01-30T08:23:52;168.18;;;79.32;;
84711;SDS011;74937;44.534;18.684;2024-01-30T08:26:18;123.15;;;62.65;;
84711;SDS011;74937;44.534;18.684;2024-01-30T08:28:43;115.57;;;57.25;;
84711;SDS011;74937;44.534;18.684;2024-01-30T08:31:12;110.55;;;52.25;;
84711;SDS011;74937;44.534;18.684;2024-01-30T08:33:38;91.75;;;47.38;;
84711;SDS011;74937;44.534;18.684;2024-01-30T08:36:03;91.10;;;43.45;;
84711;SDS011;74937;44.534;18.684;2024-01-30T08:38:29;100.45;;;50.53;;
84711;SDS011;74937;44.534;18.684;2024-01-30T08:40:55;120.60;;;60.65;;
84711;SDS011;74937;44.534;18.684;2024-01-30T08:43:21;151.80;;;70.30;;
84711;SDS011;74937;44.534;18.684;2024-01-30T08:45:47;154.25;;;78.18;;
84711;SDS011;74937;44.534;18.684;2024-01-30T08:48:13;153.15;;;71.38;;
84711;SDS011;74937;44.534;18.684;2024-01-30T08:50:38;109.90;;;54.75;;
84711;SDS011;74937;44.534;18.684;2024-01-30T08:53:04;119.32;;;56.90;;
84711;SDS011;74937;44.534;18.684;2024-01-30T08:55:30;122.65;;;58.95;;
84711;SDS011;74937;44.534;18.684;2024-01-30T08:57:55;128.93;;;64.60;;
84711;SDS011;74937;44.534;18.684;2024-01-30T09:00:21;158.15;;;75.70;;
84711;SDS011;74937;44.534;18.684;2024-01-30T09:02:47;169.02;;;79.93;;
84711;SDS011;74937;44.534;18.684;2024-01-30T09:05:13;169.43;;;84.95;;
84711;SDS011;74937;44.534;18.684;2024-01-30T09:07:38;167.05;;;81.25;;
84711;SDS011;74937;44.534;18.684;2024-01-30T09:10:04;189.85;;;88.65;;
84711;SDS011;74937;44.534;18.684;2024-01-30T09:12:31;173.13;;;87.45;;
84711;SDS011;74937;44.534;18.684;2024-01-30T09:14:57;156.40;;;77.65;;
84711;SDS011;74937;44.534;18.684;2024-01-30T09:17:23;164.05;;;80.13;;
84711;SDS011;74937;44.534;18.684;2024-01-30T09:19:48;126.30;;;62.50;;
84711;SDS011;74937;44.534;18.684;2024-01-30T09:22:14;118.68;;;55.75;;
84711;SDS011;74937;44.534;18.684;2024-01-30T09:24:40;108.35;;;56.85;;
84711;SDS011;74937;44.534;18.684;2024-01-30T09:27:06;80.05;;;40.28;;
84711;SDS011;74937;44.534;18.684;2024-01-30T09:29:32;76.47;;;40.03;;
84711;SDS011;74937;44.534;18.684;2024-01-30T09:31:59;73.78;;;39.95;;
84711;SDS011;74937;44.534;18.684;2024-01-30T09:34:25;68.28;;;35.70;;
84711;SDS011;74937;44.534;18.684;2024-01-30T09:36:51;66.35;;;35.95;;
84711;SDS011;74937;44.534;18.684;2024-01-30T09:39:17;74.75;;;39.10;;
84711;SDS011;74937;44.534;18.684;2024-01-30T09:41:46;87.47;;;43.83;;
84711;SDS011;74937;44.534;18.684;2024-01-30T09:44:19;87.25;;;45.38;;
84711;SDS011;74937;44.534;18.684;2024-01-30T09:46:46;100.10;;;48.15;;
84711;SDS011;74937;44.534;18.684;2024-01-30T09:49:15;96.25;;;48.25;;
84711;SDS011;74937;44.534;18.684;2024-01-30T09:51:44;94.13;;;48.85;;
84711;SDS011;74937;44.534;18.684;2024-01-30T09:54:10;98.80;;;50.63;;
84711;SDS011;74937;44.534;18.684;2024-01-30T09:56:40;112.57;;;53.90;;
84711;SDS011;74937;44.534;18.684;2024-01-30T09:59:06;113.13;;;54.38;;
84711;SDS011;74937;44.534;18.684;2024-01-30T10:01:31;112.45;;;54.28;;
84711;SDS011;74937;44.534;18.684;2024-01-30T10:04:00;106.43;;;52.63;;
84711;SDS011;74937;44.534;18.684;2024-01-30T10:06:26;99.60;;;52.30;;
84711;SDS011;74937;44.534;18.684;2024-01-30T10:08:53;102.40;;;52.95;;
84711;SDS011;74937;44.534;18.684;2024-01-30T10:11:19;108.85;;;51.55;;
84711;SDS011;74937;44.534;18.684;2024-01-30T10:13:44;98.53;;;51.95;;
84711;SDS011;74937;44.534;18.684;2024-01-30T10:16:13;99.65;;;51.05;;
84711;SDS011;74937;44.534;18.684;2024-01-30T10:18:40;103.50;;;54.42;;
84711;SDS011;74937;44.534;18.684;2024-01-30T10:21:07;111.38;;;52.72;;
84711;SDS011;74937;44.534;18.684;2024-01-30T10:23:33;101.50;;;51.63;;
84711;SDS011;74937;44.534;18.684;2024-01-30T10:25:59;99.57;;;52.88;;
84711;SDS011;74937;44.534;18.684;2024-01-30T10:28:26;97.65;;;50.15;;
84711;SDS011;74937;44.534;18.684;2024-01-30T10:30:58;105.40;;;49.33;;
84711;SDS011;74937;44.534;18.684;2024-01-30T10:33:25;108.47;;;51.65;;
84711;SDS011;74937;44.534;18.684;2024-01-30T10:35:54;99.22;;;50.95;;
84711;SDS011;74937;44.534;18.684;2024-01-30T10:40:54;87.60;;;43.13;;
84711;SDS011;74937;44.534;18.684;2024-01-30T10:43:22;88.80;;;43.55;;
84711;SDS011;74937;44.534;18.684;2024-01-30T10:45:49;91.55;;;46.40;;
84711;SDS011;74937;44.534;18.684;2024-01-30T10:48:19;88.80;;;43.65;;
84711;SDS011;74937;44.534;18.684;2024-01-30T10:50:54;74.78;;;40.38;;
84711;SDS011;74937;44.534;18.684;2024-01-30T10:53:22;75.28;;;34.55;;
84711;SDS011;74937;44.534;18.684;2024-01-30T10:55:50;63.63;;;35.13;;
84711;SDS011;74937;44.534;18.684;2024-01-30T10:58:17;64.03;;;32.33;;
84711;SDS011;74937;44.534;18.684;2024-01-30T11:00:43;48.10;;;25.85;;
84711;SDS011;74937;44.534;18.684;2024-01-30T11:03:10;50.22;;;25.23;;
84711;SDS011;74937;44.534;18.684;2024-01-30T11:05:40;47.15;;;24.27;;
84711;SDS011;74937;44.534;18.684;2024-01-30T11:08:12;43.13;;;23.70;;
84711;SDS011;74937;44.534;18.684;2024-01-30T11:10:46;43.25;;;22.90;;
84711;SDS011;74937;44.534;18.684;2024-01-30T11:13:29;43.67;;;21.73;;
84711;SDS011;74937;44.534;18.684;2024-01-30T11:15:55;23.20;;;13.05;;
84711;SDS011;74937;44.534;18.684;2024-01-30T11:18:25;19.85;;;11.15;;
84711;SDS011;74937;44.534;18.684;2024-01-30T11:20:57;16.20;;;7.68;;
84711;SDS011;74937;44.534;18.684;2024-01-30T11:23:29;10.23;;;7.22;;
84711;SDS011;74937;44.534;18.684;2024-01-30T11:25:55;15.18;;;6.93;;
84711;SDS011;74937;44.534;18.684;2024-01-30T11:28:22;11.80;;;6.85;;
84711;SDS011;74937;44.534;18.684;2024-01-30T11:33:29;9.60;;;6.05;;
84711;SDS011;74937;44.534;18.684;2024-01-30T11:35:57;8.20;;;5.45;;
84711;SDS011;74937;44.534;18.684;2024-01-30T11:38:25;12.38;;;6.95;;
84711;SDS011;74937;44.534;18.684;2024-01-30T11:40:53;14.38;;;7.20;;
84711;SDS011;74937;44.534;18.684;2024-01-30T11:43:21;10.65;;;6.80;;
84711;SDS011;74937;44.534;18.684;2024-01-30T11:45:46;12.73;;;6.88;;
84711;SDS011;74937;44.534;18.684;2024-01-30T11:48:12;10.90;;;6.45;;
84711;SDS011;74937;44.534;18.684;2024-01-30T11:50:39;15.77;;;6.95;;
84711;SDS011;74937;44.534;18.684;2024-01-30T11:53:09;15.82;;;8.93;;
84711;SDS011;74937;44.534;18.684;2024-01-30T11:55:36;16.08;;;8.38;;
84711;SDS011;74937;44.534;18.684;2024-01-30T11:58:03;15.00;;;8.07;;
84711;SDS011;74937;44.534;18.684;2024-01-30T12:00:29;12.55;;;7.00;;
84711;SDS011;74937;44.534;18.684;2024-01-30T12:02:56;17.05;;;9.02;;
84711;SDS011;74937;44.534;18.684;2024-01-30T12:05:22;14.60;;;8.10;;
84711;SDS011;74937;44.534;18.684;2024-01-30T12:07:49;12.75;;;7.07;;
84711;SDS011;74937;44.534;18.684;2024-01-30T12:10:15;12.05;;;7.00;;
84711;SDS011;74937;44.534;18.684;2024-01-30T12:12:45;13.70;;;6.35;;
84711;SDS011;74937;44.534;18.684;2024-01-30T12:15:12;13.38;;;8.20;;
84711;SDS011;74937;44.534;18.684;2024-01-30T12:17:39;12.75;;;6.90;;
84711;SDS011;74937;44.534;18.684;2024-01-30T12:20:17;13.20;;;6.90;;
84711;SDS011;74937;44.534;18.684;2024-01-30T12:22:44;10.07;;;6.65;;
84711;SDS011;74937;44.534;18.684;2024-01-30T12:25:18;11.95;;;5.88;;
84711;SDS011;74937;44.534;18.684;2024-01-30T12:27:49;12.13;;;7.68;;
84711;SDS011;74937;44.534;18.684;2024-01-30T12:30:16;12.88;;;7.20;;
84711;SDS011;74937;44.534;18.684;2024-01-30T12:32:44;11.48;;;6.18;;
84711;SDS011;74937;44.534;18.684;2024-01-30T12:35:15;10.05;;;5.93;;
84711;SDS011;74937;44.534;18.684;2024-01-30T12:37:55;9.35;;;5.20;;
84711;SDS011;74937;44.534;18.684;2024-01-30T12:40:21;9.68;;;5.15;;
84711;SDS011;74937;44.534;18.684;2024-01-30T12:42:47;10.57;;;5.95;;
84711;SDS011;74937;44.534;18.684;2024-01-30T12:45:18;10.60;;;6.15;;
84711;SDS011;74937;44.534;18.684;2024-01-30T12:47:53;8.80;;;5.28;;
84711;SDS011;74937;44.534;18.684;2024-01-30T12:50:18;8.70;;;5.40;;
84711;SDS011;74937;44.534;18.684;2024-01-30T12:52:44;11.32;;;6.47;;
84711;SDS011;74937;44.534;18.684;2024-01-30T12:55:10;10.60;;;4.95;;
84711;SDS011;74937;44.534;18.684;2024-01-30T12:57:36;10.48;;;5.90;;
84711;SDS011;74937;44.534;18.684;2024-01-30T13:00:02;7.07;;;4.70;;
84711;SDS011;74937;44.534;18.684;2024-01-30T13:02:27;7.70;;;4.88;;
84711;SDS011;74937;44.534;18.684;2024-01-30T13:05:00;7.30;;;4.95;;
84711;SDS011;74937;44.534;18.684;2024-01-30T13:07:25;8.52;;;5.03;;
84711;SDS011;74937;44.534;18.684;2024-01-30T13:09:51;7.55;;;4.78;;
84711;SDS011;74937;44.534;18.684;2024-01-30T13:12:16;6.57;;;4.25;;
84711;SDS011;74937;44.534;18.684;2024-01-30T13:14:42;10.95;;;4.63;;
84711;SDS011;74937;44.534;18.684;2024-01-30T13:17:08;9.82;;;4.40;;
84711;SDS011;74937;44.534;18.684;2024-01-30T13:19:33;7.88;;;4.63;;
84711;SDS011;74937;44.534;18.684;2024-01-30T13:21:59;7.13;;;4.57;;
84711;SDS011;74937;44.534;18.684;2024-01-30T13:24:25;9.63;;;5.47;;
84711;SDS011;74937;44.534;18.684;2024-01-30T13:26:50;7.43;;;4.38;;
84711;SDS011;74937;44.534;18.684;2024-01-30T13:29:16;6.85;;;4.28;;
84711;SDS011;74937;44.534;18.684;2024-01-30T13:31:42;7.95;;;4.53;;
84711;SDS011;74937;44.534;18.684;2024-01-30T13:34:09;8.55;;;5.43;;
84711;SDS011;74937;44.534;18.684;2024-01-30T13:36:35;9.93;;;4.90;;
84711;SDS011;74937;44.534;18.684;2024-01-30T13:39:00;7.97;;;5.38;;
84711;SDS011;74937;44.534;18.684;2024-01-30T13:41:26;8.68;;;5.20;;
84711;SDS011;74937;44.534;18.684;2024-01-30T13:43:52;10.18;;;5.72;;
84711;SDS011;74937;44.534;18.684;2024-01-30T13:48:44;8.60;;;4.88;;
84711;SDS011;74937;44.534;18.684;2024-01-30T13:51:10;8.35;;;4.53;;
84711;SDS011;74937;44.534;18.684;2024-01-30T13:53:38;8.02;;;4.82;;
84711;SDS011;74937;44.534;18.684;2024-01-30T13:56:04;8.23;;;5.18;;
84711;SDS011;74937;44.534;18.684;2024-01-30T13:58:29;13.65;;;5.53;;
84711;SDS011;74937;44.534;18.684;2024-01-30T14:00:55;8.25;;;4.95;;
84711;SDS011;74937;44.534;18.684;2024-01-30T14:03:21;8.60;;;5.53;;
84711;SDS011;74937;44.534;18.684;2024-01-30T14:05:47;9.13;;;5.30;;
84711;SDS011;74937;44.534;18.684;2024-01-30T14:08:12;6.57;;;4.45;;
84711;SDS011;74937;44.534;18.684;2024-01-30T14:10:38;7.13;;;4.75;;
84711;SDS011;74937;44.534;18.684;2024-01-30T14:13:04;9.43;;;5.43;;
84711;SDS011;74937;44.534;18.684;2024-01-30T14:15:29;6.32;;;4.45;;